Time;durP1;ratioP1;P1;durP2;ratioP2;P2;SDS_P1;SDS_P2;PMS_P1;PMS_P2;Temp;Humidity;BMP_temperature;BMP_pressure;BME280_temperature;BME280_humidity;BME280_pressure;Samples;Min_cycle;Max_cycle;Signal;HPM_P1;HPM_P2
2023/03/10 00:02:23;;;;;;;19.17;7.40;;;;;;;-148.88;100.00;74920.16;5041711;28;20040;-80
2023/03/10 00:04:52;;;;;;;21.60;7.70;;;;;;;-148.88;100.00;74895.78;5042302;28;20407;-79
2023/03/10 00:07:17;;;;;;;18.30;7.10;;;;;;;-148.88;100.00;74895.78;5035382;28;20025;-79
2023/03/10 00:09:44;;;;;;;18.52;7.85;;;;;;;-148.88;100.00;74873.44;5034638;28;20407;-79
2023/03/10 00:12:09;;;;;;;19.98;7.63;;;;;;;-148.88;100.00;74869.38;5037570;28;20024;-79
2023/03/10 00:14:35;;;;;;;22.63;8.70;;;;;;;-148.88;100.00;74871.41;5036037;28;20014;-79
2023/03/10 00:17:00;;;;;;;17.25;6.53;;;;;;;-148.88;100.00;74885.63;5041009;28;20033;-79
2023/03/10 00:19:25;;;;;;;23.05;6.93;;;;;;;-148.88;100.00;74861.25;5042605;28;20108;-79
2023/03/10 00:21:51;;;;;;;19.20;6.65;;;;;;;-148.88;100.00;74855.16;5043300;28;20057;-79
2023/03/10 00:24:17;;;;;;;20.08;7.00;;;;;;;-148.88;100.00;74871.41;5042966;28;20105;-79
2023/03/10 00:26:44;;;;;;;21.98;7.60;;;;;;;-148.88;100.00;74847.03;5043563;28;20045;-79
2023/03/10 00:29:10;;;;;;;18.85;7.25;;;;;;;-148.88;100.00;74830.78;5042732;28;20021;-80
2023/03/10 00:31:39;;;;;;;18.42;7.90;;;;;;;-148.88;100.00;74842.97;5045076;28;20025;-79
2023/03/10 00:34:05;;;;;;;17.63;6.78;;;;;;;-148.88;100.00;74851.09;5046659;28;20026;-79
2023/03/10 00:36:31;;;;;;;18.63;7.18;;;;;;;-148.88;100.00;74806.44;5046411;28;20084;-79
2023/03/10 00:39:02;;;;;;;18.80;7.15;;;;;;;-148.88;100.00;74792.22;5046239;28;20459;-79
2023/03/10 00:41:30;;;;;;;18.40;7.80;;;;;;;-148.88;100.00;74796.28;5045909;28;20108;-79
2023/03/10 00:43:56;;;;;;;16.60;6.78;;;;;;;-148.88;100.00;74786.13;5038124;28;20029;-79
2023/03/10 00:46:22;;;;;;;19.73;8.00;;;;;;;-148.88;100.00;74794.25;5038964;28;20022;-80
2023/03/10 00:48:48;;;;;;;19.17;7.50;;;;;;;-148.88;100.00;74769.88;5040392;28;20093;-79
2023/03/10 00:51:14;;;;;;;24.67;8.38;;;;;;;-148.88;100.00;74761.75;5042286;28;20053;-79
2023/03/10 00:53:40;;;;;;;19.73;7.15;;;;;;;-148.88;100.00;74755.66;5041433;28;20033;-79
2023/03/10 00:56:09;;;;;;;18.10;8.13;;;;;;;-148.88;100.00;74753.63;5040956;28;20392;-79
2023/03/10 00:58:35;;;;;;;23.27;8.52;;;;;;;-148.88;100.00;74751.59;5043546;28;20487;-79
2023/03/10 01:01:02;;;;;;;36.13;10.05;;;;;;;-148.88;100.00;74757.69;5042654;28;20040;-79
2023/03/10 01:03:28;;;;;;;27.17;8.63;;;;;;;-148.88;100.00;74747.53;5042330;28;20073;-79
2023/03/10 01:05:55;;;;;;;24.80;7.85;;;;;;;-148.88;100.00;74745.50;5046384;28;20108;-79
2023/03/10 01:08:21;;;;;;;23.95;8.02;;;;;;;-148.88;100.00;74747.53;5047415;28;20021;-80
2023/03/10 01:10:47;;;;;;;21.92;8.00;;;;;;;-148.88;100.00;74741.44;5047025;28;20052;-79
2023/03/10 01:13:16;;;;;;;23.80;9.10;;;;;;;-148.88;100.00;74710.97;5046886;28;20033;-79
2023/03/10 01:15:43;;;;;;;29.30;8.63;;;;;;;-148.88;100.00;74763.78;5045181;28;20017;-80
2023/03/10 01:18:09;;;;;;;26.65;8.80;;;;;;;-148.88;100.00;74704.88;5043555;28;20464;-79
2023/03/10 01:20:34;;;;;;;29.67;8.45;;;;;;;-148.88;100.00;74725.19;5038939;28;20021;-79
2023/03/10 01:23:00;;;;;;;20.33;8.13;;;;;;;-148.88;100.00;74731.28;5040272;28;20140;-79
2023/03/10 01:25:26;;;;;;;24.50;8.10;;;;;;;-148.88;100.00;74708.94;5042907;28;20063;-79
2023/03/10 01:27:52;;;;;;;30.05;8.48;;;;;;;-148.88;100.00;74708.94;5042031;28;20029;-79
2023/03/10 01:30:17;;;;;;;30.58;8.65;;;;;;;-148.88;100.00;74704.88;5041706;28;20029;-79
2023/03/10 01:32:42;;;;;;;19.08;7.60;;;;;;;-148.88;100.00;74696.78;5042835;28;20095;-79
2023/03/10 01:35:08;;;;;;;22.63;8.80;;;;;;;-148.88;100.00;74672.41;5043478;28;20026;-79
2023/03/10 01:37:33;;;;;;;26.95;9.15;;;;;;;-148.88;100.00;74668.34;5042656;28;20029;-79
2023/03/10 01:39:59;;;;;;;29.98;7.90;;;;;;;-148.88;100.00;74684.59;5044082;28;20025;-79
2023/03/10 01:42:25;;;;;;;35.10;8.60;;;;;;;-148.88;100.00;74692.72;5046720;28;20021;-79
2023/03/10 01:45:06;;;;;;;37.15;7.72;;;;;;;-148.88;100.00;74672.41;5043715;28;20064;-80
2023/03/10 01:47:31;;;;;;;29.27;6.47;;;;;;;-148.88;100.00;74676.47;5046151;28;20037;-79
2023/03/10 01:49:57;;;;;;;86.00;11.27;;;;;;;-148.88;100.00;74688.66;5046026;28;20021;-79
2023/03/10 01:52:25;;;;;;;15.85;6.15;;;;;;;-148.88;100.00;74643.97;5044548;28;20472;-79
2023/03/10 01:54:59;;;;;;;18.52;6.70;;;;;;;-148.88;100.00;74625.69;5041410;28;20488;-79
2023/03/10 01:57:36;;;;;;;17.20;6.57;;;;;;;-148.88;100.00;74635.84;5042318;28;20026;-79
2023/03/10 02:00:10;;;;;;;52.42;10.30;;;;;;;-148.88;100.00;74664.28;5041376;28;20166;-79
2023/03/10 02:02:39;;;;;;;42.42;10.20;;;;;;;-148.88;100.00;74713.00;5040910;28;20036;-79
2023/03/10 02:05:05;;;;;;;140.77;13.68;;;;;;;-148.88;100.00;74692.72;5042108;28;20044;-79
2023/03/10 02:07:31;;;;;;;48.22;8.75;;;;;;;-148.88;100.00;74623.66;5041548;28;20079;-79
2023/03/10 02:09:57;;;;;;;82.07;10.68;;;;;;;-148.88;100.00;74639.91;5043767;28;20539;-79
2023/03/10 02:12:22;;;;;;;24.90;7.43;;;;;;;-148.88;100.00;74692.72;5042690;28;20087;-79
2023/03/10 02:14:50;;;;;;;67.32;9.93;;;;;;;-148.88;100.00;74639.91;5042466;28;20048;-79
2023/03/10 02:17:20;;;;;;;17.10;5.95;;;;;;;-148.88;100.00;74607.41;5043112;28;20029;-79
2023/03/10 02:20:00;;;;;;;27.20;7.85;;;;;;;-148.88;100.00;74627.72;5043486;28;20024;-78
2023/03/10 02:22:26;;;;;;;20.45;7.57;;;;;;;-148.88;100.00;74700.84;5042404;28;20040;-79
2023/03/10 02:24:56;;;;;;;23.23;8.00;;;;;;;-148.88;100.00;74643.97;5041849;28;20029;-78
2023/03/10 02:27:30;;;;;;;24.05;8.18;;;;;;;-148.88;100.00;74603.34;5041589;28;20017;-79
2023/03/10 02:30:07;;;;;;;22.65;7.00;;;;;;;-148.88;100.00;74542.44;5043024;28;20029;-79
2023/03/10 02:32:36;;;;;;;21.27;7.57;;;;;;;-148.88;100.00;74570.88;5042091;28;20179;-79
2023/03/10 02:35:03;;;;;;;24.70;8.52;;;;;;;-148.88;100.00;74595.25;5040063;28;20068;-79
2023/03/10 02:37:31;;;;;;;19.00;7.55;;;;;;;-148.88;100.00;74534.31;5042149;28;20059;-78
2023/03/10 02:39:57;;;;;;;28.27;8.88;;;;;;;-148.88;100.00;74621.63;5041142;28;20037;-79
2023/03/10 02:42:30;;;;;;;20.08;8.40;;;;;;;-148.88;100.00;74540.41;5040830;28;20029;-79
2023/03/10 02:44:55;;;;;;;19.95;6.82;;;;;;;-148.88;100.00;74507.91;5042764;28;20064;-79
2023/03/10 02:47:20;;;;;;;21.45;7.05;;;;;;;-148.88;100.00;74475.44;5043400;28;20033;-79
2023/03/10 02:49:46;;;;;;;18.20;6.45;;;;;;;-148.88;100.00;74469.34;5043434;28;20032;-79
2023/03/10 02:52:36;;;;;;;39.67;9.35;;;;;;;-148.88;100.00;74538.38;5042479;28;20025;-79
2023/03/10 02:55:02;;;;;;;31.85;8.10;;;;;;;-148.88;100.00;74465.28;5042774;28;20018;-79
2023/03/10 02:57:27;;;;;;;43.10;8.90;;;;;;;-148.88;100.00;74461.22;5041730;28;20033;-79
2023/03/10 02:59:52;;;;;;;107.60;15.02;;;;;;;-148.88;100.00;74518.06;5042310;28;20022;-79
2023/03/10 03:02:18;;;;;;;183.57;19.85;;;;;;;-148.88;100.00;74554.63;5040992;28;20089;-79
2023/03/10 03:04:43;;;;;;;41.38;7.85;;;;;;;-148.88;100.00;74449.03;5041111;28;20021;-79
2023/03/10 03:07:08;;;;;;;180.55;16.95;;;;;;;-148.88;100.00;74509.94;5042067;28;20108;-79
2023/03/10 03:09:34;;;;;;;31.08;8.75;;;;;;;-148.88;100.00;74461.22;5041190;28;20025;-79
2023/03/10 03:12:00;;;;;;;62.30;10.57;;;;;;;-148.88;100.00;74461.22;5042467;28;20045;-79
2023/03/10 03:14:25;;;;;;;53.40;8.63;;;;;;;-148.88;100.00;74481.53;5041438;28;20021;-80
2023/03/10 03:16:50;;;;;;;30.50;8.00;;;;;;;-148.88;100.00;74487.63;5041179;28;20112;-79
2023/03/10 03:19:15;;;;;;;19.77;8.00;;;;;;;-148.88;100.00;74461.22;5041034;28;20431;-80
2023/03/10 03:21:41;;;;;;;26.85;8.23;;;;;;;-148.88;100.00;74501.81;5041882;28;20116;-79
2023/03/10 03:24:06;;;;;;;181.23;17.98;;;;;;;-148.88;100.00;74538.38;5039845;28;20395;-79
2023/03/10 03:26:31;;;;;;;300.27;23.42;;;;;;;-148.88;100.00;74542.44;5039789;28;20022;-79
2023/03/10 03:28:57;;;;;;;360.90;28.98;;;;;;;-148.88;100.00;74568.84;5041633;28;20051;-79
2023/03/10 03:31:24;;;;;;;362.27;31.55;;;;;;;-148.88;100.00;74599.28;5040240;28;20036;-79
2023/03/10 03:33:49;;;;;;;55.83;13.55;;;;;;;-148.88;100.00;74599.28;5040278;28;20025;-79
2023/03/10 03:36:15;;;;;;;40.03;11.75;;;;;;;-148.88;100.00;74601.31;5040094;28;20022;-79
2023/03/10 03:38:41;;;;;;;22.85;8.50;;;;;;;-148.88;100.00;74595.25;5041787;28;20033;-79
2023/03/10 03:41:07;;;;;;;21.88;8.07;;;;;;;-148.88;100.00;74623.66;5041718;28;20099;-79
2023/03/10 03:43:33;;;;;;;20.20;7.43;;;;;;;-148.88;100.00;74643.97;5039724;28;20036;-79
2023/03/10 03:45:58;;;;;;;16.80;6.13;;;;;;;-148.88;100.00;74603.34;5037290;28;20018;-79
2023/03/10 03:48:23;;;;;;;13.77;6.22;;;;;;;-148.88;100.00;74564.78;5037854;28;20033;-79
2023/03/10 03:50:49;;;;;;;18.35;6.30;;;;;;;-148.88;100.00;74603.34;5036505;28;20078;-80
2023/03/10 03:53:14;;;;;;;18.88;6.82;;;;;;;-148.88;100.00;74554.63;5038019;28;20022;-79
2023/03/10 03:55:39;;;;;;;17.98;7.93;;;;;;;-148.88;100.00;74576.97;5039011;28;20163;-79
2023/03/10 03:58:05;;;;;;;16.90;6.57;;;;;;;-148.88;100.00;74568.84;5041194;28;20040;-79
2023/03/10 04:00:32;;;;;;;18.70;6.88;;;;;;;-148.88;100.00;74568.84;5041077;28;20030;-79
2023/03/10 04:02:58;;;;;;;18.75;7.28;;;;;;;-148.88;100.00;74595.25;5040767;28;20052;-80
2023/03/10 04:05:23;;;;;;;19.33;7.53;;;;;;;-148.88;100.00;74593.22;5039694;28;20025;-79
2023/03/10 04:07:48;;;;;;;17.02;7.15;;;;;;;-148.88;100.00;74562.75;5041383;28;20112;-79
2023/03/10 04:10:16;;;;;;;13.65;5.93;;;;;;;-148.88;100.00;74648.03;5040743;28;20415;-79
2023/03/10 04:12:42;;;;;;;14.73;5.82;;;;;;;-148.88;100.00;74696.78;5039389;28;20075;-79
2023/03/10 04:15:08;;;;;;;13.27;5.38;;;;;;;-148.88;100.00;74721.13;5039491;28;20018;-79
2023/03/10 04:17:34;;;;;;;11.70;4.60;;;;;;;-148.88;100.00;74698.78;5041300;28;20025;-79
2023/03/10 04:19:59;;;;;;;13.82;5.63;;;;;;;-148.88;100.00;74684.59;5040136;28;20036;-80
2023/03/10 04:22:24;;;;;;;16.67;5.60;;;;;;;-148.88;100.00;74708.94;5040477;28;20025;-79
2023/03/10 04:24:50;;;;;;;13.20;5.32;;;;;;;-148.88;100.00;74700.84;5040917;28;20021;-79
2023/03/10 04:27:15;;;;;;;13.15;4.95;;;;;;;-148.88;100.00;74670.38;5038755;28;20120;-80
2023/03/10 04:29:40;;;;;;;15.68;5.30;;;;;;;-148.88;100.00;74611.47;5038987;28;20041;-80
2023/03/10 04:32:06;;;;;;;14.50;5.43;;;;;;;-148.88;100.00;74648.03;5038887;28;20025;-81
2023/03/10 04:34:32;;;;;;;14.20;4.97;;;;;;;-148.88;100.00;74650.06;5042495;28;20025;-81
2023/03/10 04:36:57;;;;;;;13.93;5.40;;;;;;;-148.88;100.00;74708.94;5042874;28;20079;-81
2023/03/10 04:39:22;;;;;;;16.13;5.80;;;;;;;-148.88;100.00;74704.88;5044651;28;20035;-81
2023/03/10 04:41:48;;;;;;;13.35;5.53;;;;;;;-148.88;100.00;74666.31;5044302;28;20037;-81
2023/03/10 04:44:13;;;;;;;16.92;6.07;;;;;;;-148.88;100.00;74692.72;5042311;28;20025;-82
2023/03/10 04:46:38;;;;;;;15.32;5.82;;;;;;;-148.88;100.00;74706.91;5043464;28;20017;-81
2023/03/10 04:49:04;;;;;;;14.13;5.68;;;;;;;-148.88;100.00;74715.03;5044614;28;20030;-81
2023/03/10 04:51:29;;;;;;;15.05;5.68;;;;;;;-148.88;100.00;74725.19;5044836;28;20022;-81
2023/03/10 04:53:56;;;;;;;15.50;5.75;;;;;;;-148.88;100.00;74696.78;5044659;28;20029;-81
2023/03/10 04:56:21;;;;;;;13.70;5.15;;;;;;;-148.88;100.00;74684.59;5042202;28;20026;-81
2023/03/10 04:58:47;;;;;;;15.77;5.93;;;;;;;-148.88;100.00;74717.06;5034027;28;20037;-81
2023/03/10 05:01:14;;;;;;;17.27;6.30;;;;;;;-148.88;100.00;74733.31;5034924;28;20032;-80
2023/03/10 05:03:39;;;;;;;15.73;6.20;;;;;;;-148.88;100.00;74735.34;5041461;28;20534;-81
2023/03/10 05:06:11;;;;;;;13.93;6.13;;;;;;;-148.88;100.00;74688.66;5045192;28;20479;-80
2023/03/10 05:08:36;;;;;;;16.30;5.75;;;;;;;-148.88;100.00;74723.16;5044180;28;20040;-80
2023/03/10 05:11:05;;;;;;;13.45;5.72;;;;;;;-148.88;100.00;74713.00;5044638;28;20029;-80
2023/03/10 05:13:31;;;;;;;14.80;5.28;;;;;;;-148.88;100.00;74733.31;5044567;28;20483;-80
2023/03/10 05:15:56;;;;;;;16.50;6.82;;;;;;;-148.88;100.00;74721.13;5044999;28;20063;-81
2023/03/10 05:18:22;;;;;;;14.68;5.95;;;;;;;-148.88;100.00;74704.88;5045829;28;20037;-81
2023/03/10 05:20:52;;;;;;;14.52;5.93;;;;;;;-148.88;100.00;74713.00;5046305;28;20021;-81
2023/03/10 05:23:17;;;;;;;15.35;6.03;;;;;;;-148.88;100.00;74741.44;5047379;28;20021;-82
2023/03/10 05:25:43;;;;;;;15.23;6.72;;;;;;;-148.88;100.00;74743.47;5049313;28;20025;-82
2023/03/10 05:28:08;;;;;;;18.15;6.03;;;;;;;-148.88;100.00;74735.34;5050043;28;20049;-82
2023/03/10 05:30:36;;;;;;;12.77;5.60;;;;;;;-148.88;100.00;74753.63;5049926;28;20180;-82
2023/03/10 05:33:01;;;;;;;17.92;6.50;;;;;;;-148.88;100.00;74745.50;5035817;22;20042;-90
2023/03/10 05:35:26;;;;;;;14.77;6.13;;;;;;;-148.88;100.00;74749.56;5035951;28;20052;-90
2023/03/10 05:37:52;;;;;;;16.33;5.70;;;;;;;-148.88;100.00;74743.47;5035491;28;20045;-89
2023/03/10 05:40:21;;;;;;;18.45;5.47;;;;;;;-148.88;100.00;74765.81;5017731;28;20022;-90
2023/03/10 05:42:47;;;;;;;18.65;6.80;;;;;;;-148.88;100.00;74757.69;5035527;28;20594;-88
2023/03/10 05:45:13;;;;;;;25.27;6.05;;;;;;;-148.88;100.00;74751.59;5035518;28;20044;-88
2023/03/10 05:47:38;;;;;;;19.75;6.93;;;;;;;-148.88;100.00;74749.56;5035307;28;20021;-88
2023/03/10 05:50:09;;;;;;;21.08;7.88;;;;;;;-148.88;100.00;74769.88;5035821;28;20032;-89
2023/03/10 05:52:38;;;;;;;19.55;5.88;;;;;;;-148.88;100.00;74775.97;5035875;28;20033;-88
2023/03/10 05:55:05;;;;;;;28.10;7.50;;;;;;;-148.88;100.00;74757.69;5036490;28;20025;-91
2023/03/10 05:57:30;;;;;;;16.70;6.20;;;;;;;-148.88;100.00;74717.06;5035372;28;20035;-92
2023/03/10 05:59:56;;;;;;;29.00;8.07;;;;;;;-148.88;100.00;74737.38;5035840;28;20021;-91
2023/03/10 06:02:21;;;;;;;17.73;6.32;;;;;;;-148.88;100.00;74729.25;5036238;28;20025;-91
2023/03/10 06:04:46;;;;;;;40.67;8.57;;;;;;;-148.88;100.00;74755.66;5035576;28;20079;-89
2023/03/10 06:07:12;;;;;;;21.52;7.60;;;;;;;-148.88;100.00;74765.81;5035624;28;20052;-87
2023/03/10 06:09:37;;;;;;;23.05;6.68;;;;;;;-148.88;100.00;74731.28;5035571;28;20079;-88
2023/03/10 06:12:03;;;;;;;17.38;6.65;;;;;;;-148.88;100.00;74773.94;5035443;28;20408;-88
2023/03/10 06:14:28;;;;;;;15.23;5.55;;;;;;;-148.88;100.00;74792.22;5035457;28;20025;-88
2023/03/10 06:16:54;;;;;;;19.30;5.78;;;;;;;-148.88;100.00;74755.66;5035550;28;20021;-88
2023/03/10 06:19:23;;;;;;;17.40;6.40;;;;;;;-148.88;100.00;74782.06;5017473;28;20025;-92
2023/03/10 06:21:49;;;;;;;15.07;5.88;;;;;;;-148.88;100.00;74810.50;5017990;28;20083;-91
2023/03/10 06:24:15;;;;;;;16.95;5.95;;;;;;;-148.88;100.00;74798.31;5035478;28;20021;-90
2023/03/10 06:26:41;;;;;;;24.02;7.28;;;;;;;-148.88;100.00;74767.84;5018358;28;20036;-90
2023/03/10 06:29:07;;;;;;;19.25;6.80;;;;;;;-148.88;100.00;74806.44;5035884;28;20076;-89
2023/03/10 06:31:32;;;;;;;19.95;6.85;;;;;;;-148.88;100.00;74782.06;5017697;28;20029;-91
2023/03/10 06:33:59;;;;;;;17.10;5.78;;;;;;;-148.88;100.00;74713.00;5035312;28;20077;-90
2023/03/10 06:36:26;;;;;;;19.23;6.82;;;;;;;-148.88;100.00;74694.75;5016907;28;20052;-89
2023/03/10 06:38:52;;;;;;;15.10;5.72;;;;;;;-148.88;100.00;74684.59;5034725;28;20424;-91
2023/03/10 06:41:18;;;;;;;16.15;6.07;;;;;;;-148.88;100.00;74619.59;5034849;28;20104;-88
2023/03/10 06:43:43;;;;;;;16.95;4.75;;;;;;;-148.88;100.00;74611.47;5034458;28;20105;-89
2023/03/10 06:46:10;;;;;;;14.20;5.28;;;;;;;-148.88;100.00;74593.22;5035033;28;20018;-89
2023/03/10 06:48:37;;;;;;;18.67;7.05;;;;;;;-148.88;100.00;74615.53;5034304;28;20022;-88
2023/03/10 06:51:16;;;;;;;14.05;6.07;;;;;;;-148.88;100.00;74595.25;5034240;28;20028;-89
2023/03/10 06:53:41;;;;;;;14.43;6.03;;;;;;;-148.88;100.00;74631.78;5016756;28;20391;-89
2023/03/10 06:56:14;;;;;;;16.10;5.90;;;;;;;-148.88;100.00;74623.66;5034544;28;20028;-89
2023/03/10 06:58:40;;;;;;;15.80;6.78;;;;;;;-148.88;100.00;74680.53;5034680;28;20052;-89
2023/03/10 07:01:07;;;;;;;13.40;5.72;;;;;;;-148.88;100.00;74713.00;5034200;28;20371;-88
2023/03/10 07:03:34;;;;;;;15.55;5.40;;;;;;;-148.88;100.00;74747.53;5034335;28;20105;-88
2023/03/10 07:05:59;;;;;;;13.23;5.43;;;;;;;-148.88;100.00;74650.06;5039088;28;20005;-89
2023/03/10 07:08:26;;;;;;;13.45;5.18;;;;;;;-148.88;100.00;74708.94;5036253;28;20521;-89
2023/03/10 07:10:52;;;;;;;13.15;5.07;;;;;;;-148.88;100.00;74664.28;5033991;28;20030;-88
2023/03/10 07:13:17;;;;;;;13.05;4.68;;;;;;;-148.88;100.00;74615.53;5034218;28;20045;-89
2023/03/10 07:15:44;;;;;;;11.93;5.25;;;;;;;-148.88;100.00;74607.41;5016246;28;20021;-90
2023/03/10 07:18:09;;;;;;;11.07;4.78;;;;;;;-148.88;100.00;74708.94;5016280;28;20052;-89
2023/03/10 07:20:38;;;;;;;11.98;4.70;;;;;;;-148.88;100.00;74676.47;5033918;28;20022;-89
2023/03/10 07:23:03;;;;;;;12.40;5.65;;;;;;;-148.88;100.00;74704.88;5034008;28;20491;-90
2023/03/10 07:25:29;;;;;;;12.40;5.40;;;;;;;-148.88;100.00;74737.38;5033302;28;20025;-89
2023/03/10 07:27:54;;;;;;;12.27;5.10;;;;;;;-148.88;100.00;74668.34;5033764;28;20025;-89
2023/03/10 07:30:19;;;;;;;12.20;4.78;;;;;;;-148.88;100.00;74633.81;5015943;28;20395;-88
2023/03/10 07:32:45;;;;;;;11.35;4.47;;;;;;;-148.88;100.00;74631.78;5033667;28;20544;-88
2023/03/10 07:35:10;;;;;;;12.63;4.72;;;;;;;-148.88;100.00;74611.47;5034102;28;20018;-88
2023/03/10 07:37:37;;;;;;;10.55;4.43;;;;;;;-148.88;100.00;74583.06;5033753;28;20035;-88
2023/03/10 07:40:04;;;;;;;12.00;5.60;;;;;;;-148.88;100.00;74654.13;5015967;28;20085;-88
2023/03/10 07:42:29;;;;;;;13.15;5.07;;;;;;;-148.88;100.00;74589.16;5015665;28;20033;-88
2023/03/10 07:44:55;;;;;;;10.63;4.38;;;;;;;-148.88;100.00;74599.28;5033503;28;20054;-89
2023/03/10 07:47:20;;;;;;;8.88;4.63;;;;;;;-148.88;100.00;74574.94;5033376;28;20060;-89
2023/03/10 07:49:45;;;;;;;12.80;4.97;;;;;;;-148.88;99.99;74546.50;5033349;28;20026;-89
2023/03/10 07:52:13;;;;;;;10.85;5.10;;;;;;;-148.88;99.57;74546.50;5033392;28;20511;-89
2023/03/10 07:54:38;;;;;;;7.88;4.22;;;;;;;-148.88;99.97;74540.41;5033264;28;20052;-89
2023/03/10 07:57:03;;;;;;;9.07;4.03;;;;;;;-148.88;100.00;74548.53;5015849;28;20025;-89
2023/03/10 07:59:28;;;;;;;9.48;4.10;;;;;;;-148.88;100.00;74576.97;5033458;28;20056;-89
2023/03/10 08:01:54;;;;;;;7.90;3.80;;;;;;;-148.88;99.92;74574.94;5033279;28;20479;-87
2023/03/10 08:04:19;;;;;;;6.38;3.30;;;;;;;-148.88;100.00;74568.84;5033639;28;20017;-89
2023/03/10 08:06:44;;;;;;;9.00;3.97;;;;;;;-148.88;100.00;74609.44;5033568;28;20083;-89
2023/03/10 08:09:10;;;;;;;9.45;3.30;;;;;;;-148.88;100.00;74678.50;5015849;28;20476;-89
2023/03/10 08:11:35;;;;;;;7.45;3.75;;;;;;;-148.88;100.00;74603.34;5032984;28;20025;-89
2023/03/10 08:14:00;;;;;;;9.35;3.75;;;;;;;-148.88;100.00;74581.03;5015530;28;20017;-90
2023/03/10 08:16:25;;;;;;;9.30;3.83;;;;;;;-148.88;100.00;74595.25;5033053;28;20018;-90
2023/03/10 08:18:53;;;;;;;9.25;3.85;;;;;;;-148.88;100.00;74597.25;5033069;28;20025;-89
2023/03/10 08:21:19;;;;;;;7.90;4.03;;;;;;;-148.88;100.00;74648.03;5015761;28;20099;-91
2023/03/10 08:23:44;;;;;;;8.65;3.90;;;;;;;-148.88;100.00;74611.47;5033384;28;20419;-91
2023/03/10 08:26:13;;;;;;;8.65;3.95;;;;;;;-148.88;100.00;74593.22;5033705;28;20021;-90
2023/03/10 08:28:39;;;;;;;8.90;4.25;;;;;;;-148.88;100.00;74660.22;5033208;28;20034;-90
2023/03/10 08:31:14;;;;;;;9.90;3.70;;;;;;;-148.88;100.00;74589.16;5015355;28;20048;-90
2023/03/10 08:33:40;;;;;;;15.90;6.05;;;;;;;-148.88;100.00;74595.25;5015383;28;20018;-90
2023/03/10 08:36:10;;;;;;;9.20;4.22;;;;;;;-148.88;100.00;74550.56;5032805;28;20036;-88
2023/03/10 08:38:36;;;;;;;11.55;4.57;;;;;;;-148.88;100.00;74607.41;5036689;28;20029;-89
2023/03/10 08:41:12;;;;;;;8.25;4.10;;;;;;;-148.88;100.00;74591.19;5036769;28;20079;-90
2023/03/10 08:43:38;;;;;;;9.43;4.13;;;;;;;-148.88;100.00;74572.91;5019221;28;20488;-90
2023/03/10 08:46:04;;;;;;;10.07;3.90;;;;;;;-148.88;100.00;74583.06;5036603;28;20079;-90
2023/03/10 08:48:29;;;;;;;8.57;4.18;;;;;;;-148.88;100.00;74609.44;5036501;28;20021;-90
2023/03/10 08:50:56;;;;;;;8.90;3.88;;;;;;;-148.88;100.00;74554.63;5036707;28;20029;-90
2023/03/10 08:53:22;;;;;;;9.55;4.63;;;;;;;-148.88;100.00;74558.69;5018809;28;20029;-89
2023/03/10 08:55:47;;;;;;;8.73;3.80;;;;;;;-148.88;100.00;74546.50;5036507;28;20036;-89
2023/03/10 08:58:12;;;;;;;10.88;4.40;;;;;;;-148.88;100.00;74552.59;5036544;28;20099;-89
2023/03/10 09:00:38;;;;;;;8.65;4.18;;;;;;;-148.88;100.00;74524.16;5018927;28;20025;-89
2023/03/10 09:03:03;;;;;;;8.10;3.70;;;;;;;-148.88;100.00;74542.44;5019278;28;20033;-89
2023/03/10 09:05:28;;;;;;;8.30;3.30;;;;;;;-148.88;100.00;74518.06;5036744;28;20093;-90
2023/03/10 09:07:54;;;;;;;7.68;3.83;;;;;;;-148.88;100.00;74534.31;5036621;28;20064;-89
2023/03/10 09:10:19;;;;;;;6.43;3.03;;;;;;;-148.88;100.00;74530.25;5036716;28;20018;-90
2023/03/10 09:12:45;;;;;;;8.38;3.92;;;;;;;-148.88;100.00;74554.63;5036205;28;20036;-89
2023/03/10 09:15:10;;;;;;;7.40;3.25;;;;;;;-148.88;100.00;74509.94;5035995;28;20035;-89
2023/03/10 09:17:35;;;;;;;6.57;3.38;;;;;;;-148.88;100.00;74534.31;5018646;28;20048;-90
2023/03/10 09:20:01;;;;;;;6.47;3.22;;;;;;;-148.88;100.00;74501.81;5036193;28;20160;-89
2023/03/10 09:22:26;;;;;;;6.75;3.08;;;;;;;-148.88;100.00;74505.88;5036407;28;20499;-90
2023/03/10 09:24:51;;;;;;;7.50;3.15;;;;;;;-148.88;100.00;74534.31;5036055;28;20377;-90
2023/03/10 09:27:16;;;;;;;8.70;3.45;;;;;;;-148.88;100.00;74509.94;5018196;28;20037;-89
2023/03/10 09:29:42;;;;;;;8.75;3.85;;;;;;;-148.88;100.00;74514.00;5036213;28;20392;-89
2023/03/10 09:32:07;;;;;;;9.02;3.30;;;;;;;-148.88;100.00;74501.81;5035891;28;20030;-90
2023/03/10 09:34:32;;;;;;;7.40;3.38;;;;;;;-148.88;100.00;74507.91;5018482;28;20060;-90
2023/03/10 09:36:58;;;;;;;10.27;3.97;;;;;;;-148.88;99.91;74520.09;5018236;28;20033;-89
2023/03/10 09:39:23;;;;;;;10.32;4.47;;;;;;;-148.88;100.00;74475.44;5036142;28;20391;-90
2023/03/10 09:42:07;;;;;;;8.80;4.30;;;;;;;-148.88;99.02;74473.41;5018384;28;20068;-90
2023/03/10 09:45:11;;;;;;;8.07;3.97;;;;;;;-148.88;98.96;74461.22;5018722;28;20025;-88
2023/03/10 09:48:14;;;;;;;11.52;4.70;;;;;;;-148.88;98.66;74428.72;5017604;28;20456;-90
2023/03/10 09:50:42;;;;;;;9.50;4.32;;;;;;;-148.88;98.38;74449.03;4979977;28;20037;-89
2023/03/10 09:53:28;;;;;;;9.18;4.22;;;;;;;-148.88;98.75;74461.22;5017836;28;20041;-89
2023/03/10 09:55:54;;;;;;;6.82;3.58;;;;;;;-148.88;98.56;74467.31;5017725;28;20048;-89
2023/03/10 09:58:35;;;;;;;7.57;3.53;;;;;;;-148.88;98.70;74471.38;5035265;28;20480;-89
2023/03/10 10:01:01;;;;;;;7.30;3.53;;;;;;;-148.88;98.81;74465.28;5035202;28;20033;-88
2023/03/10 10:03:41;;;;;;;5.82;2.83;;;;;;;-148.88;98.82;74477.47;5017455;28;20029;-88
2023/03/10 10:06:12;;;;;;;4.95;2.70;;;;;;;-148.88;98.86;74505.88;5035252;28;20021;-89
2023/03/10 10:08:44;;;;;;;5.88;3.33;;;;;;;-148.88;99.87;74514.00;5035437;28;20033;-88
2023/03/10 10:11:14;;;;;;;7.50;3.35;;;;;;;-148.88;100.00;74507.91;5035315;28;20029;-88
2023/03/10 10:13:39;;;;;;;6.03;2.92;;;;;;;-148.88;100.00;74505.88;5017939;28;20045;-88
2023/03/10 10:16:19;;;;;;;6.00;2.67;;;;;;;-148.88;99.81;74461.22;5034987;28;20436;-88
2023/03/10 10:19:05;;;;;;;6.78;3.03;;;;;;;-148.88;99.18;74457.16;5018026;28;20025;-88
2023/03/10 10:21:57;;;;;;;4.75;2.63;;;;;;;-148.88;99.08;74477.47;5035103;28;20032;-88
2023/03/10 10:24:22;;;;;;;6.07;2.67;;;;;;;-148.88;100.00;74489.66;5017468;28;20116;-89
2023/03/10 10:26:47;;;;;;;5.28;2.90;;;;;;;-148.88;99.38;74449.03;5017502;28;20056;-88
2023/03/10 10:29:17;;;;;;;4.72;2.60;;;;;;;-148.88;99.36;74477.47;5034980;28;20546;-88
2023/03/10 10:32:02;;;;;;;5.03;2.15;;;;;;;-148.88;99.83;74485.59;5035047;28;20033;-88
2023/03/10 10:34:27;;;;;;;5.50;2.83;;;;;;;-148.88;100.00;74477.47;5017809;28;20028;-89
2023/03/10 10:36:55;;;;;;;5.03;2.70;;;;;;;-148.88;100.00;74465.28;5034670;28;20025;-88
2023/03/10 10:39:23;;;;;;;5.63;2.92;;;;;;;-148.88;100.00;74491.69;5034600;28;20025;-87
2023/03/10 10:41:48;;;;;;;5.43;2.50;;;;;;;-148.88;100.00;74497.78;5017516;28;20061;-88
2023/03/10 10:44:16;;;;;;;4.13;2.20;;;;;;;-148.88;100.00;74495.75;5034814;28;20056;-88
2023/03/10 10:46:51;;;;;;;5.10;2.35;;;;;;;-148.88;99.95;74471.38;5016757;28;20013;-89
2023/03/10 10:49:26;;;;;;;6.70;2.42;;;;;;;-148.88;99.25;74477.47;5017126;28;20057;-88
2023/03/10 10:51:59;;;;;;;4.93;2.22;;;;;;;-148.88;99.54;74449.03;5034416;28;20495;-88
2023/03/10 10:54:28;;;;;;;6.90;2.50;;;;;;;-148.88;99.13;74467.31;5034625;28;20450;-88
2023/03/10 10:56:55;;;;;;;3.42;1.90;;;;;;;-148.88;98.59;74422.63;5017323;28;20046;-88
2023/03/10 10:59:26;;;;;;;4.07;1.90;;;;;;;-148.88;100.00;74489.66;5034010;28;20047;-88
2023/03/10 11:01:54;;;;;;;4.88;2.25;;;;;;;-148.88;100.00;74489.66;5016432;28;20476;-87
2023/03/10 11:04:22;;;;;;;3.60;1.75;;;;;;;-148.88;99.69;74463.25;5017035;28;20064;-88
2023/03/10 11:06:48;;;;;;;3.80;1.95;;;;;;;-148.88;99.08;74426.69;5034182;28;20060;-88